sensor_id;sensor_type;location;lat;lon;timestamp;pressure;altitude;pressure_sealevel;temperature;humidity
54022;BME280;39936;51.058;17.220;2023-03-21T00:01:52;101715.30;;;8.19;100.00
54022;BME280;39936;51.058;17.220;2023-03-21T00:05:22;101718.63;;;8.15;100.00
54022;BME280;39936;51.058;17.220;2023-03-21T00:09:05;101710.15;;;8.21;100.00
54022;BME280;39936;51.058;17.220;2023-03-21T00:13:19;101705.73;;;8.26;100.00
54022;BME280;39936;51.058;17.220;2023-03-21T00:17:00;101707.55;;;8.23;100.00
54022;BME280;39936;51.058;17.220;2023-03-21T00:20:31;101700.24;;;8.27;100.00
54022;BME280;39936;51.058;17.220;2023-03-21T00:24:13;101687.09;;;8.17;100.00
54022;BME280;39936;51.058;17.220;2023-03-21T00:28:14;101690.33;;;8.17;100.00
54022;BME280;39936;51.058;17.220;2023-03-21T00:32:00;101655.30;;;7.98;100.00
54022;BME280;39936;51.058;17.220;2023-03-21T00:36:01;101677.02;;;8.14;100.00
54022;BME280;39936;51.058;17.220;2023-03-21T00:39:26;101676.30;;;8.18;100.00
54022;BME280;39936;51.058;17.220;2023-03-21T00:43:08;101675.45;;;8.15;100.00
54022;BME280;39936;51.058;17.220;2023-03-21T00:46:36;101679.20;;;8.18;100.00
54022;BME280;39936;51.058;17.220;2023-03-21T00:50:38;101680.04;;;8.18;100.00
54022;BME280;39936;51.058;17.220;2023-03-21T00:54:36;101676.90;;;8.18;100.00
54022;BME280;39936;51.058;17.220;2023-03-21T00:58:06;101678.27;;;8.18;100.00
54022;BME280;39936;51.058;17.220;2023-03-21T01:01:34;101675.80;;;8.23;100.00
54022;BME280;39936;51.058;17.220;2023-03-21T01:05:29;101674.28;;;8.11;100.00
54022;BME280;39936;51.058;17.220;2023-03-21T01:09:26;101670.31;;;8.15;100.00
54022;BME280;39936;51.058;17.220;2023-03-21T01:12:49;101666.74;;;8.21;100.00
54022;BME280;39936;51.058;17.220;2023-03-21T01:16:11;101633.70;;;8.05;100.00
54022;BME280;39936;51.058;17.220;2023-03-21T01:23:55;101662.45;;;8.18;100.00
54022;BME280;39936;51.058;17.220;2023-03-21T01:27:35;101677.98;;;8.19;100.00
54022;BME280;39936;51.058;17.220;2023-03-21T01:31:04;101689.54;;;8.10;100.00
54022;BME280;39936;51.058;17.220;2023-03-21T01:34:25;101687.76;;;8.13;100.00
54022;BME280;39936;51.058;17.220;2023-03-21T01:38:24;101675.43;;;8.16;100.00
54022;BME280;39936;51.058;17.220;2023-03-21T01:42:54;101672.78;;;8.09;100.00
54022;BME280;39936;51.058;17.220;2023-03-21T01:50:49;101665.90;;;8.03;100.00
54022;BME280;39936;51.058;17.220;2023-03-21T01:54:43;101630.00;;;7.79;100.00
54022;BME280;39936;51.058;17.220;2023-03-21T01:58:25;101652.68;;;7.98;100.00
54022;BME280;39936;51.058;17.220;2023-03-21T02:02:30;101645.95;;;7.96;100.00
54022;BME280;39936;51.058;17.220;2023-03-21T02:06:00;101650.19;;;7.96;100.00
54022;BME280;39936;51.058;17.220;2023-03-21T02:09:50;101627.03;;;7.76;100.00
54022;BME280;39936;51.058;17.220;2023-03-21T02:13:10;101652.19;;;7.81;100.00
54022;BME280;39936;51.058;17.220;2023-03-21T02:28:07;101672.16;;;7.68;100.00
54022;BME280;39936;51.058;17.220;2023-03-21T02:31:51;101672.27;;;7.61;100.00
54022;BME280;39936;51.058;17.220;2023-03-21T02:35:22;101670.34;;;7.58;100.00
54022;BME280;39936;51.058;17.220;2023-03-21T02:44:06;101670.08;;;7.54;100.00
54022;BME280;39936;51.058;17.220;2023-03-21T02:47:49;101653.20;;;7.45;100.00
54022;BME280;39936;51.058;17.220;2023-03-21T02:51:32;101678.99;;;7.60;100.00
54022;BME280;39936;51.058;17.220;2023-03-21T02:55:25;101676.37;;;7.57;100.00
54022;BME280;39936;51.058;17.220;2023-03-21T02:59:08;101677.02;;;7.50;100.00
54022;BME280;39936;51.058;17.220;2023-03-21T03:02:34;101671.91;;;7.40;100.00
54022;BME280;39936;51.058;17.220;2023-03-21T03:06:18;101678.67;;;7.43;100.00
54022;BME280;39936;51.058;17.220;2023-03-21T03:10:07;101682.28;;;7.40;100.00
54022;BME280;39936;51.058;17.220;2023-03-21T03:21:46;101682.85;;;7.39;100.00
54022;BME280;39936;51.058;17.220;2023-03-21T03:25:13;101669.16;;;7.40;100.00
54022;BME280;39936;51.058;17.220;2023-03-21T03:28:47;101672.98;;;7.39;100.00
54022;BME280;39936;51.058;17.220;2023-03-21T03:32:39;101642.18;;;7.19;100.00
54022;BME280;39936;51.058;17.220;2023-03-21T03:36:09;101682.70;;;7.45;100.00
54022;BME280;39936;51.058;17.220;2023-03-21T03:39:45;101654.30;;;7.22;100.00
54022;BME280;39936;51.058;17.220;2023-03-21T03:48:23;101669.98;;;7.27;100.00
54022;BME280;39936;51.058;17.220;2023-03-21T03:52:11;101690.23;;;7.39;100.00
54022;BME280;39936;51.058;17.220;2023-03-21T03:55:51;101668.73;;;7.28;100.00
54022;BME280;39936;51.058;17.220;2023-03-21T03:59:17;101683.08;;;7.32;100.00
54022;BME280;39936;51.058;17.220;2023-03-21T04:03:20;101691.91;;;7.43;100.00
54022;BME280;39936;51.058;17.220;2023-03-21T04:07:14;101689.49;;;7.50;100.00
54022;BME280;39936;51.058;17.220;2023-03-21T04:11:01;101694.13;;;7.57;100.00
54022;BME280;39936;51.058;17.220;2023-03-21T04:15:24;101691.20;;;7.54;100.00
54022;BME280;39936;51.058;17.220;2023-03-21T04:18:45;101691.65;;;7.55;100.00
54022;BME280;39936;51.058;17.220;2023-03-21T04:22:20;101683.64;;;7.47;100.00
54022;BME280;39936;51.058;17.220;2023-03-21T04:25:51;101697.31;;;7.51;100.00
54022;BME280;39936;51.058;17.220;2023-03-21T04:34:14;101702.21;;;7.44;100.00
54022;BME280;39936;51.058;17.220;2023-03-21T04:37:59;101697.30;;;7.39;100.00
54022;BME280;39936;51.058;17.220;2023-03-21T04:42:02;101676.36;;;7.21;100.00
54022;BME280;39936;51.058;17.220;2023-03-21T04:45:47;101695.65;;;7.32;100.00
54022;BME280;39936;51.058;17.220;2023-03-21T04:49:10;101699.35;;;7.34;100.00
54022;BME280;39936;51.058;17.220;2023-03-21T04:53:07;101703.02;;;7.32;100.00
54022;BME280;39936;51.058;17.220;2023-03-21T04:57:07;101704.47;;;7.30;100.00
54022;BME280;39936;51.058;17.220;2023-03-21T05:00:34;101706.47;;;7.29;100.00
54022;BME280;39936;51.058;17.220;2023-03-21T05:04:18;101673.44;;;7.06;100.00
54022;BME280;39936;51.058;17.220;2023-03-21T05:08:06;101685.36;;;7.13;100.00
54022;BME280;39936;51.058;17.220;2023-03-21T05:11:45;101687.26;;;7.11;100.00
54022;BME280;39936;51.058;17.220;2023-03-21T05:15:32;101714.82;;;7.24;100.00
54022;BME280;39936;51.058;17.220;2023-03-21T05:18:58;101714.79;;;7.24;100.00
54022;BME280;39936;51.058;17.220;2023-03-21T05:22:44;101717.43;;;7.25;100.00
54022;BME280;39936;51.058;17.220;2023-03-21T05:26:56;101702.70;;;7.15;100.00
54022;BME280;39936;51.058;17.220;2023-03-21T05:30:59;101691.66;;;7.10;100.00
54022;BME280;39936;51.058;17.220;2023-03-21T05:34:45;101692.78;;;7.13;100.00
54022;BME280;39936;51.058;17.220;2023-03-21T05:38:37;101723.12;;;7.32;100.00
54022;BME280;39936;51.058;17.220;2023-03-21T05:42:10;101725.67;;;7.33;100.00
54022;BME280;39936;51.058;17.220;2023-03-21T05:45:39;101728.93;;;7.34;100.00
54022;BME280;39936;51.058;17.220;2023-03-21T05:49:14;101727.94;;;7.35;100.00
54022;BME280;39936;51.058;17.220;2023-03-21T05:52:55;101731.00;;;7.37;100.00
54022;BME280;39936;51.058;17.220;2023-03-21T05:56:48;101732.99;;;7.39;100.00
54022;BME280;39936;51.058;17.220;2023-03-21T06:00:52;101736.02;;;7.41;100.00
54022;BME280;39936;51.058;17.220;2023-03-21T06:04:33;101737.10;;;7.41;100.00
54022;BME280;39936;51.058;17.220;2023-03-21T06:07:55;101729.87;;;7.40;100.00
54022;BME280;39936;51.058;17.220;2023-03-21T06:11:38;101741.48;;;7.45;100.00
54022;BME280;39936;51.058;17.220;2023-03-21T06:15:21;101704.47;;;7.26;100.00
54022;BME280;39936;51.058;17.220;2023-03-21T06:19:07;101743.53;;;7.50;100.00
54022;BME280;39936;51.058;17.220;2023-03-21T06:22:30;101741.77;;;7.51;100.00
54022;BME280;39936;51.058;17.220;2023-03-21T06:26:40;101742.59;;;7.52;100.00
54022;BME280;39936;51.058;17.220;2023-03-21T06:30:20;101742.34;;;7.53;100.00
54022;BME280;39936;51.058;17.220;2023-03-21T06:34:37;101746.34;;;7.55;100.00
54022;BME280;39936;51.058;17.220;2023-03-21T06:38:26;101748.26;;;7.59;100.00
54022;BME280;39936;51.058;17.220;2023-03-21T06:41:48;101751.88;;;7.62;100.00
54022;BME280;39936;51.058;17.220;2023-03-21T06:45:35;101758.05;;;7.66;100.00
54022;BME280;39936;51.058;17.220;2023-03-21T06:49:34;101759.16;;;7.69;100.00
54022;BME280;39936;51.058;17.220;2023-03-21T06:53:25;101763.64;;;7.72;100.00
54022;BME280;39936;51.058;17.220;2023-03-21T06:57:06;101767.20;;;7.74;100.00
54022;BME280;39936;51.058;17.220;2023-03-21T07:00:52;101766.80;;;7.72;100.00
54022;BME280;39936;51.058;17.220;2023-03-21T07:04:38;101777.73;;;7.76;100.00
54022;BME280;39936;51.058;17.220;2023-03-21T07:08:52;101779.13;;;7.72;100.00
54022;BME280;39936;51.058;17.220;2023-03-21T07:13:01;101783.31;;;7.75;100.00
54022;BME280;39936;51.058;17.220;2023-03-21T07:16:49;101749.21;;;7.48;100.00
54022;BME280;39936;51.058;17.220;2023-03-21T07:20:26;101750.18;;;7.47;100.00
54022;BME280;39936;51.058;17.220;2023-03-21T07:24:37;101783.45;;;7.70;100.00
54022;BME280;39936;51.058;17.220;2023-03-21T07:28:18;101782.66;;;7.75;100.00
54022;BME280;39936;51.058;17.220;2023-03-21T07:32:11;101779.11;;;7.76;100.00
54022;BME280;39936;51.058;17.220;2023-03-21T07:35:44;101788.96;;;7.90;100.00
54022;BME280;39936;51.058;17.220;2023-03-21T07:39:53;101785.70;;;7.91;100.00
54022;BME280;39936;51.058;17.220;2023-03-21T07:43:25;101790.52;;;7.99;100.00
54022;BME280;39936;51.058;17.220;2023-03-21T07:47:20;101792.42;;;8.02;100.00
54022;BME280;39936;51.058;17.220;2023-03-21T07:50:58;101794.16;;;8.08;100.00
54022;BME280;39936;51.058;17.220;2023-03-21T07:54:20;101777.85;;;7.98;100.00
54022;BME280;39936;51.058;17.220;2023-03-21T07:58:20;101796.05;;;8.07;100.00
54022;BME280;39936;51.058;17.220;2023-03-21T08:02:40;101790.08;;;8.10;100.00
54022;BME280;39936;51.058;17.220;2023-03-21T08:06:39;101800.36;;;8.32;100.00
54022;BME280;39936;51.058;17.220;2023-03-21T08:10:04;101798.48;;;8.42;100.00
54022;BME280;39936;51.058;17.220;2023-03-21T08:13:43;101799.48;;;8.45;100.00
54022;BME280;39936;51.058;17.220;2023-03-21T08:17:41;101803.58;;;8.47;100.00
54022;BME280;39936;51.058;17.220;2023-03-21T08:21:04;101806.42;;;8.38;100.00
54022;BME280;39936;51.058;17.220;2023-03-21T08:24:28;101807.20;;;8.34;100.00
54022;BME280;39936;51.058;17.220;2023-03-21T08:28:07;101810.86;;;8.32;99.93
54022;BME280;39936;51.058;17.220;2023-03-21T08:31:48;101809.84;;;8.36;100.00
54022;BME280;39936;51.058;17.220;2023-03-21T08:35:11;101808.06;;;8.48;100.00
54022;BME280;39936;51.058;17.220;2023-03-21T08:38:32;101809.91;;;8.51;97.00
54022;BME280;39936;51.058;17.220;2023-03-21T08:42:01;101789.48;;;8.36;97.72
54022;BME280;39936;51.058;17.220;2023-03-21T08:45:31;101817.37;;;8.54;98.15
54022;BME280;39936;51.058;17.220;2023-03-21T08:49:17;101820.34;;;8.57;100.00
54022;BME280;39936;51.058;17.220;2023-03-21T08:53:13;101822.02;;;8.55;100.00
54022;BME280;39936;51.058;17.220;2023-03-21T08:56:32;101824.41;;;8.50;100.00
54022;BME280;39936;51.058;17.220;2023-03-21T09:00:19;101829.22;;;8.44;100.00
54022;BME280;39936;51.058;17.220;2023-03-21T09:04:06;101821.34;;;8.34;100.00
54022;BME280;39936;51.058;17.220;2023-03-21T09:08:02;101833.49;;;8.25;100.00
54022;BME280;39936;51.058;17.220;2023-03-21T09:11:25;101839.50;;;8.17;100.00
54022;BME280;39936;51.058;17.220;2023-03-21T09:14:46;101811.55;;;7.82;100.00
54022;BME280;39936;51.058;17.220;2023-03-21T09:18:28;101846.02;;;7.86;100.00
54022;BME280;39936;51.058;17.220;2023-03-21T09:22:06;101829.03;;;7.56;100.00
54022;BME280;39936;51.058;17.220;2023-03-21T09:25:59;101819.84;;;7.47;100.00
54022;BME280;39936;51.058;17.220;2023-03-21T09:29:42;101843.41;;;7.57;100.00
54022;BME280;39936;51.058;17.220;2023-03-21T09:33:32;101842.67;;;7.73;100.00
54022;BME280;39936;51.058;17.220;2023-03-21T09:37:29;101842.20;;;7.91;100.00
54022;BME280;39936;51.058;17.220;2023-03-21T09:41:24;101839.43;;;8.18;100.00
54022;BME280;39936;51.058;17.220;2023-03-21T09:52:56;101834.29;;;8.63;100.00
54022;BME280;39936;51.058;17.220;2023-03-21T09:56:40;101833.02;;;8.70;100.00
54022;BME280;39936;51.058;17.220;2023-03-21T10:00:09;101831.22;;;8.77;100.00
54022;BME280;39936;51.058;17.220;2023-03-21T10:04:07;101826.14;;;8.81;100.00
54022;BME280;39936;51.058;17.220;2023-03-21T10:15:48;101827.50;;;8.95;100.00
54022;BME280;39936;51.058;17.220;2023-03-21T10:19:19;101826.09;;;8.99;100.00
54022;BME280;39936;51.058;17.220;2023-03-21T10:23:02;101824.46;;;9.05;100.00
54022;BME280;39936;51.058;17.220;2023-03-21T10:27:10;101825.77;;;9.18;100.00
54022;BME280;39936;51.058;17.220;2023-03-21T10:34:35;101825.35;;;9.33;95.94
54022;BME280;39936;51.058;17.220;2023-03-21T10:38:28;101825.34;;;9.24;95.75
54022;BME280;39936;51.058;17.220;2023-03-21T10:41:50;101819.22;;;9.23;95.87
54022;BME280;39936;51.058;17.220;2023-03-21T10:46:19;101815.36;;;9.34;96.74
54022;BME280;39936;51.058;17.220;2023-03-21T10:50:06;101821.82;;;9.62;95.43
54022;BME280;39936;51.058;17.220;2023-03-21T10:54:00;101821.31;;;9.72;94.33
54022;BME280;39936;51.058;17.220;2023-03-21T10:58:01;101824.95;;;9.75;93.34
54022;BME280;39936;51.058;17.220;2023-03-21T11:01:37;101819.43;;;9.86;94.03
54022;BME280;39936;51.058;17.220;2023-03-21T11:09:12;101813.87;;;10.50;94.34
54022;BME280;39936;51.058;17.220;2023-03-21T11:12:40;101813.32;;;10.59;88.06
54022;BME280;39936;51.058;17.220;2023-03-21T11:16:40;101809.52;;;10.57;88.83
54022;BME280;39936;51.058;17.220;2023-03-21T11:20:53;101803.30;;;10.76;89.45
54022;BME280;39936;51.058;17.220;2023-03-21T11:25:13;101794.81;;;11.06;86.66
54022;BME280;39936;51.058;17.220;2023-03-21T11:29:00;101791.34;;;11.17;83.98
54022;BME280;39936;51.058;17.220;2023-03-21T11:33:03;101788.29;;;11.14;84.44
54022;BME280;39936;51.058;17.220;2023-03-21T11:36:50;101786.69;;;11.17;80.74
54022;BME280;39936;51.058;17.220;2023-03-21T11:40:53;101783.70;;;11.15;83.20
54022;BME280;39936;51.058;17.220;2023-03-21T11:44:28;101781.27;;;11.15;80.67
54022;BME280;39936;51.058;17.220;2023-03-21T11:48:51;101747.72;;;10.93;80.89
54022;BME280;39936;51.058;17.220;2023-03-21T11:52:22;101776.16;;;10.83;80.94
54022;BME280;39936;51.058;17.220;2023-03-21T12:03:46;101776.21;;;10.61;83.46
54022;BME280;39936;51.058;17.220;2023-03-21T12:12:08;101771.64;;;10.38;83.32
54022;BME280;39936;51.058;17.220;2023-03-21T12:19:50;101768.05;;;10.34;83.59
54022;BME280;39936;51.058;17.220;2023-03-21T12:23:39;101762.74;;;10.32;83.38
54022;BME280;39936;51.058;17.220;2023-03-21T12:30:44;101756.81;;;10.25;82.59
54022;BME280;39936;51.058;17.220;2023-03-21T12:38:53;101751.77;;;10.46;81.77
54022;BME280;39936;51.058;17.220;2023-03-21T12:43:06;101718.74;;;10.34;82.25
54022;BME280;39936;51.058;17.220;2023-03-21T12:47:03;101739.41;;;10.62;82.26
54022;BME280;39936;51.058;17.220;2023-03-21T12:51:14;101738.64;;;10.65;79.50
54022;BME280;39936;51.058;17.220;2023-03-21T12:58:21;101733.02;;;10.72;80.37
54022;BME280;39936;51.058;17.220;2023-03-21T13:05:45;101724.20;;;10.63;77.95
54022;BME280;39936;51.058;17.220;2023-03-21T13:20:59;101698.68;;;11.09;77.32
54022;BME280;39936;51.058;17.220;2023-03-21T13:24:56;101695.22;;;11.12;76.73
54022;BME280;39936;51.058;17.220;2023-03-21T13:37:18;101692.07;;;10.99;76.57
54022;BME280;39936;51.058;17.220;2023-03-21T13:41:39;101685.87;;;10.95;75.02
54022;BME280;39936;51.058;17.220;2023-03-21T13:53:39;101670.67;;;11.13;74.62
54022;BME280;39936;51.058;17.220;2023-03-21T13:57:05;101678.51;;;11.05;75.56
54022;BME280;39936;51.058;17.220;2023-03-21T14:00:38;101675.58;;;11.30;75.87
54022;BME280;39936;51.058;17.220;2023-03-21T14:04:05;101673.39;;;11.40;74.78
54022;BME280;39936;51.058;17.220;2023-03-21T14:07:48;101669.83;;;11.49;73.08
54022;BME280;39936;51.058;17.220;2023-03-21T14:11:59;101673.95;;;11.38;72.66
54022;BME280;39936;51.058;17.220;2023-03-21T14:15:31;101668.98;;;11.36;73.42
54022;BME280;39936;51.058;17.220;2023-03-21T14:19:14;101668.45;;;11.29;72.81
54022;BME280;39936;51.058;17.220;2023-03-21T14:22:34;101662.76;;;11.29;71.51
54022;BME280;39936;51.058;17.220;2023-03-21T14:26:11;101659.32;;;11.29;72.97
54022;BME280;39936;51.058;17.220;2023-03-21T14:29:33;101658.49;;;11.01;72.90
54022;BME280;39936;51.058;17.220;2023-03-21T14:33:31;101658.95;;;10.65;74.16
54022;BME280;39936;51.058;17.220;2023-03-21T14:37:39;101658.57;;;10.68;74.72
54022;BME280;39936;51.058;17.220;2023-03-21T14:41:24;101654.32;;;10.90;75.78
54022;BME280;39936;51.058;17.220;2023-03-21T14:45:28;101615.98;;;10.89;75.33
54022;BME280;39936;51.058;17.220;2023-03-21T14:49:48;101640.33;;;11.06;74.51
54022;BME280;39936;51.058;17.220;2023-03-21T14:53:56;101637.34;;;10.69;75.86
54022;BME280;39936;51.058;17.220;2023-03-21T14:57:49;101640.04;;;10.79;74.92
54022;BME280;39936;51.058;17.220;2023-03-21T15:01:32;101637.50;;;10.92;74.31
54022;BME280;39936;51.058;17.220;2023-03-21T15:05:19;101630.60;;;10.99;73.70
54022;BME280;39936;51.058;17.220;2023-03-21T15:09:03;101622.55;;;10.70;74.69
54022;BME280;39936;51.058;17.220;2023-03-21T15:12:51;101635.93;;;10.68;74.51
54022;BME280;39936;51.058;17.220;2023-03-21T15:16:57;101627.32;;;10.65;74.17
54022;BME280;39936;51.058;17.220;2023-03-21T15:25:27;101627.71;;;10.60;76.52
54022;BME280;39936;51.058;17.220;2023-03-21T15:29:11;101618.05;;;10.54;76.14
54022;BME280;39936;51.058;17.220;2023-03-21T15:32:41;101629.69;;;10.63;76.49
54022;BME280;39936;51.058;17.220;2023-03-21T15:36:42;101625.49;;;10.70;76.88
54022;BME280;39936;51.058;17.220;2023-03-21T15:40:35;101627.45;;;10.79;76.29
54022;BME280;39936;51.058;17.220;2023-03-21T15:45:00;101625.34;;;10.83;75.36
54022;BME280;39936;51.058;17.220;2023-03-21T15:52:32;101623.23;;;10.62;74.93
54022;BME280;39936;51.058;17.220;2023-03-21T15:55:58;101591.37;;;10.40;75.34
54022;BME280;39936;51.058;17.220;2023-03-21T15:59:45;101622.55;;;10.72;76.29
54022;BME280;39936;51.058;17.220;2023-03-21T16:04:01;101615.23;;;10.83;76.84
54022;BME280;39936;51.058;17.220;2023-03-21T16:07:27;101619.84;;;11.04;76.95
54022;BME280;39936;51.058;17.220;2023-03-21T16:11:27;101591.45;;;10.93;76.48
54022;BME280;39936;51.058;17.220;2023-03-21T16:14:50;101617.99;;;10.91;75.58
54022;BME280;39936;51.058;17.220;2023-03-21T16:18:34;101613.50;;;10.82;76.43
54022;BME280;39936;51.058;17.220;2023-03-21T16:22:31;101617.00;;;10.79;77.13
54022;BME280;39936;51.058;17.220;2023-03-21T16:26:44;101618.55;;;10.77;77.27
54022;BME280;39936;51.058;17.220;2023-03-21T16:30:05;101623.26;;;10.78;77.43
54022;BME280;39936;51.058;17.220;2023-03-21T16:34:18;101610.55;;;10.66;77.54
54022;BME280;39936;51.058;17.220;2023-03-21T16:38:12;101626.92;;;10.69;77.78
54022;BME280;39936;51.058;17.220;2023-03-21T16:41:46;101620.33;;;10.66;77.98
54022;BME280;39936;51.058;17.220;2023-03-21T16:45:37;101624.94;;;10.72;77.97
54022;BME280;39936;51.058;17.220;2023-03-21T16:49:19;101628.91;;;10.69;77.87
54022;BME280;39936;51.058;17.220;2023-03-21T16:53:00;101602.20;;;10.54;77.96
54022;BME280;39936;51.058;17.220;2023-03-21T16:56:33;101625.48;;;10.68;78.08
54022;BME280;39936;51.058;17.220;2023-03-21T17:00:30;101616.10;;;10.58;78.19
54022;BME280;39936;51.058;17.220;2023-03-21T17:04:15;101615.75;;;10.48;78.52
54022;BME280;39936;51.058;17.220;2023-03-21T17:07:55;101596.47;;;10.29;78.84
54022;BME280;39936;51.058;17.220;2023-03-21T17:11:42;101607.02;;;10.31;79.18
54022;BME280;39936;51.058;17.220;2023-03-21T17:16:00;101624.05;;;10.38;79.51
54022;BME280;39936;51.058;17.220;2023-03-21T17:19:45;101618.91;;;10.30;79.75
54022;BME280;39936;51.058;17.220;2023-03-21T17:23:42;101618.91;;;10.28;80.10
54022;BME280;39936;51.058;17.220;2023-03-21T17:27:29;101626.28;;;10.24;80.47
54022;BME280;39936;51.058;17.220;2023-03-21T17:31:25;101635.77;;;10.13;81.20
54022;BME280;39936;51.058;17.220;2023-03-21T17:34:47;101634.59;;;10.04;81.91
54022;BME280;39936;51.058;17.220;2023-03-21T17:39:18;101636.83;;;9.89;83.43
54022;BME280;39936;51.058;17.220;2023-03-21T17:42:44;101642.29;;;9.70;85.19
54022;BME280;39936;51.058;17.220;2023-03-21T17:46:24;101618.76;;;9.57;85.64
54022;BME280;39936;51.058;17.220;2023-03-21T17:50:41;101629.94;;;9.69;85.68
54022;BME280;39936;51.058;17.220;2023-03-21T17:54:10;101637.23;;;9.72;86.32
54022;BME280;39936;51.058;17.220;2023-03-21T17:58:29;101623.54;;;9.41;88.22
54022;BME280;39936;51.058;17.220;2023-03-21T18:01:55;101633.06;;;9.23;91.80
54022;BME280;39936;51.058;17.220;2023-03-21T18:05:12;101651.92;;;9.25;93.35
54022;BME280;39936;51.058;17.220;2023-03-21T18:09:11;101644.02;;;9.12;95.51
54022;BME280;39936;51.058;17.220;2023-03-21T18:13:23;101644.09;;;9.10;96.31
54022;BME280;39936;51.058;17.220;2023-03-21T18:16:57;101651.17;;;9.12;98.50
54022;BME280;39936;51.058;17.220;2023-03-21T18:20:50;101655.89;;;9.10;98.82
54022;BME280;39936;51.058;17.220;2023-03-21T18:24:35;101660.80;;;9.10;100.00
54022;BME280;39936;51.058;17.220;2023-03-21T18:32:41;101658.51;;;9.21;99.74
54022;BME280;39936;51.058;17.220;2023-03-21T18:36:20;101657.67;;;9.34;99.10
54022;BME280;39936;51.058;17.220;2023-03-21T18:39:59;101654.58;;;9.43;98.47
54022;BME280;39936;51.058;17.220;2023-03-21T18:43:56;101647.48;;;9.35;99.53
54022;BME280;39936;51.058;17.220;2023-03-21T18:51:08;101643.85;;;9.16;100.00
54022;BME280;39936;51.058;17.220;2023-03-21T18:55:16;101609.38;;;9.02;100.00
54022;BME280;39936;51.058;17.220;2023-03-21T18:58:40;101644.26;;;9.17;100.00
54022;BME280;39936;51.058;17.220;2023-03-21T19:02:06;101642.98;;;9.03;100.00
54022;BME280;39936;51.058;17.220;2023-03-21T19:05:57;101639.95;;;8.97;100.00
54022;BME280;39936;51.058;17.220;2023-03-21T19:09:28;101627.70;;;8.93;100.00
54022;BME280;39936;51.058;17.220;2023-03-21T19:12:56;101603.45;;;8.82;100.00
54022;BME280;39936;51.058;17.220;2023-03-21T19:16:18;101636.72;;;9.11;100.00
54022;BME280;39936;51.058;17.220;2023-03-21T19:20:03;101641.60;;;9.14;100.00
54022;BME280;39936;51.058;17.220;2023-03-21T19:23:23;101635.55;;;9.15;100.00
54022;BME280;39936;51.058;17.220;2023-03-21T19:26:52;101634.27;;;9.15;100.00
54022;BME280;39936;51.058;17.220;2023-03-21T19:30:38;101635.71;;;9.14;100.00
54022;BME280;39936;51.058;17.220;2023-03-21T19:34:48;101629.57;;;9.15;100.00
54022;BME280;39936;51.058;17.220;2023-03-21T19:38:30;101596.51;;;8.95;100.00
54022;BME280;39936;51.058;17.220;2023-03-21T19:42:01;101629.90;;;9.13;100.00
54022;BME280;39936;51.058;17.220;2023-03-21T19:46:10;101632.97;;;9.11;100.00
54022;BME280;39936;51.058;17.220;2023-03-21T19:49:52;101630.09;;;9.14;100.00
54022;BME280;39936;51.058;17.220;2023-03-21T19:53:17;101628.58;;;9.04;100.00
54022;BME280;39936;51.058;17.220;2023-03-21T19:57:03;101626.34;;;9.03;100.00
54022;BME280;39936;51.058;17.220;2023-03-21T20:01:00;101628.26;;;9.02;100.00
54022;BME280;39936;51.058;17.220;2023-03-21T20:05:05;101620.68;;;8.88;100.00
54022;BME280;39936;51.058;17.220;2023-03-21T20:08:58;101622.87;;;8.87;100.00
54022;BME280;39936;51.058;17.220;2023-03-21T20:13:07;101620.15;;;8.84;100.00
54022;BME280;39936;51.058;17.220;2023-03-21T20:16:37;101620.34;;;8.76;100.00
54022;BME280;39936;51.058;17.220;2023-03-21T20:20:35;101624.13;;;8.70;100.00
54022;BME280;39936;51.058;17.220;2023-03-21T20:24:02;101624.09;;;8.63;100.00
54022;BME280;39936;51.058;17.220;2023-03-21T20:28:04;101623.08;;;8.59;100.00
54022;BME280;39936;51.058;17.220;2023-03-21T20:32:09;101619.48;;;8.63;100.00
54022;BME280;39936;51.058;17.220;2023-03-21T20:36:03;101607.26;;;8.73;100.00
54022;BME280;39936;51.058;17.220;2023-03-21T20:43:42;101605.15;;;8.87;100.00
54022;BME280;39936;51.058;17.220;2023-03-21T20:47:05;101597.30;;;8.81;100.00
54022;BME280;39936;51.058;17.220;2023-03-21T20:50:43;101600.02;;;8.79;100.00
54022;BME280;39936;51.058;17.220;2023-03-21T20:55:03;101591.35;;;8.66;100.00
54022;BME280;39936;51.058;17.220;2023-03-21T20:58:42;101569.76;;;8.40;100.00
54022;BME280;39936;51.058;17.220;2023-03-21T21:02:32;101598.01;;;8.50;100.00
54022;BME280;39936;51.058;17.220;2023-03-21T21:06:19;101599.59;;;8.39;100.00
54022;BME280;39936;51.058;17.220;2023-03-21T21:10:15;101597.35;;;8.26;100.00
54022;BME280;39936;51.058;17.220;2023-03-21T21:13:42;101591.15;;;8.11;100.00
54022;BME280;39936;51.058;17.220;2023-03-21T21:17:28;101592.52;;;8.00;100.00
54022;BME280;39936;51.058;17.220;2023-03-21T21:20:58;101585.64;;;7.76;100.00
54022;BME280;39936;51.058;17.220;2023-03-21T21:24:49;101590.47;;;7.70;100.00
54022;BME280;39936;51.058;17.220;2023-03-21T21:28:15;101588.85;;;7.59;100.00
54022;BME280;39936;51.058;17.220;2023-03-21T21:31:39;101584.42;;;7.51;100.00
54022;BME280;39936;51.058;17.220;2023-03-21T21:35:00;101577.75;;;7.43;100.00
54022;BME280;39936;51.058;17.220;2023-03-21T21:38:24;101549.55;;;7.26;100.00
54022;BME280;39936;51.058;17.220;2023-03-21T21:41:50;101572.00;;;7.44;100.00
54022;BME280;39936;51.058;17.220;2023-03-21T21:45:13;101544.13;;;7.26;100.00
54022;BME280;39936;51.058;17.220;2023-03-21T21:48:44;101578.45;;;7.53;100.00